createdAt,value
2019-02-14T12:15:25.215Z,99574.02
2019-02-14T12:17:09.643Z,99581.02
2019-02-14T12:18:54.069Z,99574.47
2019-02-14T12:20:38.498Z,99569.25
2019-02-14T12:22:22.922Z,99573.22
2019-02-14T12:24:09.522Z,99573.23
2019-02-14T12:25:53.938Z,99563.64
2019-02-14T12:27:38.372Z,99561.04
2019-02-14T12:29:22.772Z,99562.81
2019-02-14T12:31:07.200Z,99561.98
2019-02-14T12:32:51.599Z,99553.30
2019-02-14T12:34:36.028Z,99553.73
2019-02-14T12:36:20.477Z,99549.83
2019-02-14T12:38:05.066Z,99546.34
2019-02-14T12:39:49.602Z,99541.97
2019-02-14T12:41:34.087Z,99542.00
2019-02-14T12:43:18.583Z,99540.23
2019-02-14T12:45:03.088Z,99537.19
2019-02-14T12:46:47.514Z,99539.38
2019-02-14T12:48:31.935Z,99533.72
2019-02-14T12:50:16.341Z,99532.39
2019-02-14T12:52:00.764Z,99538.52
2019-02-14T12:53:45.163Z,99532.86
2019-02-14T12:55:29.591Z,99535.46
2019-02-14T12:57:13.991Z,99528.91
2019-02-14T12:58:58.418Z,99522.78
2019-02-14T13:00:42.819Z,99524.56
2019-02-14T13:02:27.246Z,99517.55
2019-02-14T13:04:11.646Z,99514.48
2019-02-14T13:05:56.293Z,99514.03
2019-02-14T13:07:40.683Z,99511.41
2019-02-14T13:09:25.199Z,99508.34
2019-02-14T13:11:09.628Z,99507.92
2019-02-14T13:12:54.052Z,99506.16
2019-02-14T13:14:38.478Z,99507.90
2019-02-14T13:16:22.966Z,99513.16
2019-02-14T13:18:07.396Z,99511.88
2019-02-14T13:19:51.818Z,99515.83
2019-02-14T13:21:36.248Z,99511.45
2019-02-14T13:23:20.647Z,99509.70
2019-02-14T13:25:08.118Z,99502.24
2019-02-14T13:26:52.546Z,99497.45
2019-02-14T13:28:37.032Z,99499.63
2019-02-14T13:30:25.927Z,99497.42
2019-02-14T13:32:10.373Z,99501.38
2019-02-14T13:33:54.790Z,99504.86
2019-02-14T13:35:39.210Z,99507.94
2019-02-14T13:37:23.722Z,99499.62
2019-02-14T13:39:08.123Z,99493.92
2019-02-14T13:40:54.595Z,99499.63
2019-02-14T13:42:38.645Z,99496.11
2019-02-14T13:44:23.072Z,99497.42
2019-02-14T13:46:07.565Z,99493.04
2019-02-14T13:47:52.967Z,99491.28
2019-02-14T13:49:37.394Z,99492.60
2019-02-14T13:51:21.824Z,99489.08
2019-02-14T13:53:06.257Z,99486.00
2019-02-14T13:54:50.655Z,99479.01
2019-02-14T13:56:35.082Z,99479.88
2019-02-14T13:58:19.484Z,99482.50
2019-02-14T14:00:09.669Z,99481.64
2019-02-14T14:01:54.070Z,99478.98
2019-02-14T14:03:38.498Z,99478.98
2019-02-14T14:05:22.908Z,99483.37
2019-02-14T14:07:07.330Z,99476.36
2019-02-14T14:08:51.776Z,99472.87
2019-02-14T14:10:36.202Z,99464.53
2019-02-14T14:12:21.376Z,99467.13
2019-02-14T14:14:06.868Z,99468.86
2019-02-14T14:15:51.478Z,99465.79
2019-02-14T14:17:35.987Z,99463.61
2019-02-14T14:19:20.414Z,99461.84
2019-02-14T14:21:04.842Z,99456.17
2019-02-14T14:22:49.286Z,99447.39
2019-02-14T14:24:33.710Z,99441.26
2019-02-14T14:26:18.146Z,99436.86
2019-02-14T14:28:02.583Z,99437.73
2019-02-14T14:29:47.013Z,99437.31
2019-02-14T14:31:31.418Z,99438.59
2019-02-14T14:33:15.845Z,99437.27
2019-02-14T14:35:00.247Z,99434.19
2019-02-14T14:36:44.671Z,99429.37
2019-02-14T14:38:29.075Z,99431.56
2019-02-14T14:40:17.658Z,99435.92
2019-02-14T14:42:03.426Z,99434.15
2019-02-14T14:43:55.456Z,99435.05
2019-02-14T14:45:50.601Z,99433.73
2019-02-14T14:47:35.030Z,99430.20
2019-02-14T14:49:19.463Z,99430.20
2019-02-14T14:51:03.891Z,99435.01
2019-02-14T14:52:48.617Z,99432.38
2019-02-14T14:54:33.530Z,99435.87
2019-02-14T14:56:18.394Z,99429.73
2019-02-14T14:58:03.351Z,99431.05
2019-02-14T14:59:48.217Z,99434.55
2019-02-14T15:01:34.690Z,99429.34
2019-02-14T15:03:19.576Z,99427.17
2019-02-14T15:05:04.667Z,99423.67
2019-02-14T15:06:49.458Z,99432.42
2019-02-14T15:08:34.150Z,99434.19
2019-02-14T15:10:18.994Z,99431.52
2019-02-14T15:12:03.650Z,99430.66
2019-02-14T15:13:48.246Z,99431.52
2019-02-14T15:15:32.666Z,99429.30
